Time;durP1;ratioP1;P1;durP2;ratioP2;P2;SDS_P1;SDS_P2;PMS_P1;PMS_P2;Temp;Humidity;BMP_temperature;BMP_pressure;BME280_temperature;BME280_humidity;BME280_pressure;Samples;Min_cycle;Max_cycle;Signal;HPM_P1;HPM_P2
2022/03/11 00:01:05;;;;;;;0.20;0.10;;;11.20;99.90;;;;;;26073965;22;20191;-74
2022/03/11 00:11:09;;;;;;;0.20;0.10;;;11.30;99.90;;;;;;26047616;22;20183;-74
2022/03/11 00:21:14;;;;;;;0.20;0.07;;;11.30;99.90;;;;;;26068337;22;20199;-75
2022/03/11 00:31:18;;;;;;;0.20;0.00;;;11.10;99.90;;;;;;26070996;22;20186;-74
2022/03/11 00:41:24;;;;;;;0.20;0.00;;;10.90;99.90;;;;;;26044363;22;20234;-73
2022/03/11 00:51:28;;;;;;;0.20;0.10;;;10.70;99.90;;;;;;26071196;22;20164;-69
2022/03/11 01:01:34;;;;;;;0.20;0.10;;;10.70;99.90;;;;;;26044573;22;20195;-69
2022/03/11 01:11:38;;;;;;;0.20;0.00;;;10.30;99.90;;;;;;26017086;22;20160;-69
2022/03/11 01:21:43;;;;;;;0.20;0.00;;;10.20;99.90;;;;;;26070176;22;20188;-69
2022/03/11 01:31:47;;;;;;;0.20;0.03;;;10.00;99.90;;;;;;26041615;22;20188;-68
2022/03/11 01:41:52;;;;;;;1.13;0.87;;;9.70;99.90;;;;;;26041193;22;20775;-69
2022/03/11 01:51:59;;;;;;;0.20;0.00;;;9.90;99.90;;;;;;26047643;22;20175;-67
2022/03/11 02:02:05;;;;;;;0.20;0.00;;;9.70;99.90;;;;;;26075167;22;20195;-69
2022/03/11 02:12:10;;;;;;;0.20;0.10;;;9.80;99.90;;;;;;26077150;22;20176;-68
2022/03/11 02:22:17;;;;;;;0.20;0.10;;;9.90;99.90;;;;;;26075975;22;20188;-70
2022/03/11 02:32:22;;;;;;;0.20;0.10;;;9.60;99.90;;;;;;26048352;22;20192;-68
2022/03/11 02:42:26;;;;;;;0.20;0.00;;;9.60;99.90;;;;;;26076164;22;20188;-68
2022/03/11 02:52:31;;;;;;;0.20;0.10;;;9.80;99.90;;;;;;26076613;22;20165;-68
2022/03/11 03:02:36;;;;;;;0.20;0.00;;;9.70;99.90;;;;;;26049303;22;20183;-68
2022/03/11 03:12:42;;;;;;;0.20;0.00;;;9.60;99.90;;;;;;26049099;22;20183;-69
2022/03/11 03:22:46;;;;;;;0.20;0.00;;;9.60;99.90;;;;;;26075424;22;20195;-66
2022/03/11 03:32:51;;;;;;;0.20;0.10;;;9.70;99.90;;;;;;26074545;22;20203;-65
2022/03/11 03:42:55;;;;;;;0.20;0.07;;;9.80;99.90;;;;;;26074642;22;20247;-73
2022/03/11 03:53:00;;;;;;;0.20;0.10;;;9.80;99.90;;;;;;26047117;22;20532;-74
2022/03/11 04:03:04;;;;;;;0.20;0.00;;;9.80;99.90;;;;;;26021226;22;20180;-74
2022/03/11 04:13:09;;;;;;;0.20;0.00;;;9.80;99.90;;;;;;26073042;22;20255;-75
2022/03/11 04:23:13;;;;;;;0.20;0.10;;;9.80;99.90;;;;;;26072535;22;20183;-74
2022/03/11 04:33:18;;;;;;;0.20;0.10;;;9.80;99.90;;;;;;26072255;22;20206;-66
2022/03/11 04:43:22;;;;;;;0.20;0.10;;;9.70;99.90;;;;;;26045381;22;20191;-66
2022/03/11 04:53:27;;;;;;;0.20;0.10;;;9.90;99.90;;;;;;26044934;22;20167;-74
2022/03/11 05:03:31;;;;;;;0.20;0.00;;;9.80;99.90;;;;;;26068428;22;20199;-74
2022/03/11 05:13:36;;;;;;;0.20;0.00;;;9.80;99.90;;;;;;26042289;22;20168;-74
2022/03/11 05:23:40;;;;;;;0.20;0.10;;;9.80;99.90;;;;;;26072381;22;20195;-73
2022/03/11 05:33:45;;;;;;;0.20;0.00;;;10.00;99.90;;;;;;26076535;22;20192;-73
2022/03/11 05:43:49;;;;;;;0.20;0.10;;;10.00;99.90;;;;;;26050406;22;20211;-72
2022/03/11 05:53:54;;;;;;;0.20;0.00;;;9.90;99.90;;;;;;26045357;22;20168;-70
2022/03/11 06:03:58;;;;;;;0.20;0.10;;;10.10;99.90;;;;;;26074832;22;20188;-69
2022/03/11 06:14:03;;;;;;;0.20;0.07;;;10.10;99.90;;;;;;26072577;22;20164;-67
2022/03/11 06:24:07;;;;;;;0.20;0.00;;;10.20;99.90;;;;;;26069729;22;20202;-68
2022/03/11 06:34:13;;;;;;;5.20;4.60;;;10.20;99.90;;;;;;26069709;22;20192;-70
2022/03/11 06:44:17;;;;;;;0.20;0.00;;;10.30;99.90;;;;;;26043087;22;20199;-68
2022/03/11 06:54:23;;;;;;;0.20;0.10;;;10.50;99.90;;;;;;26065557;22;20180;-69
2022/03/11 07:04:27;;;;;;;0.20;0.10;;;10.50;99.90;;;;;;26060969;22;20192;-70
2022/03/11 07:14:34;;;;;;;0.20;0.00;;;10.90;99.90;;;;;;26038238;22;20180;-68
2022/03/11 07:24:39;;;;;;;0.20;0.10;;;10.90;99.90;;;;;;26040141;22;20180;-69
2022/03/11 07:34:44;;;;;;;0.20;0.00;;;11.30;99.90;;;;;;26067660;22;20203;-69
2022/03/11 07:44:48;;;;;;;0.20;0.10;;;11.90;99.90;;;;;;26039400;22;20529;-69
2022/03/11 07:54:53;;;;;;;0.20;0.00;;;12.40;99.90;;;;;;26066092;22;20184;-67
2022/03/11 08:04:58;;;;;;;0.20;0.00;;;13.20;99.90;;;;;;26063242;22;20185;-68
2022/03/11 08:15:03;;;;;;;0.20;0.00;;;13.90;99.90;;;;;;26060930;22;20184;-69
2022/03/11 08:25:09;;;;;;;0.20;0.00;;;14.00;99.90;;;;;;26063636;22;20187;-70
2022/03/11 08:35:15;;;;;;;0.20;0.00;;;14.10;99.90;;;;;;26066604;22;20188;-69
2022/03/11 08:45:20;;;;;;;0.20;0.10;;;14.40;99.90;;;;;;26064585;22;20183;-69
2022/03/11 08:55:25;;;;;;;0.20;0.00;;;14.40;99.90;;;;;;26063526;22;20191;-69
2022/03/11 09:05:29;;;;;;;0.20;0.00;;;14.90;99.90;;;;;;26037461;22;20200;-70
2022/03/11 09:15:34;;;;;;;0.20;0.10;;;15.30;99.90;;;;;;26037763;22;20188;-68
2022/03/11 09:25:42;;;;;;;0.20;0.00;;;15.20;99.90;;;;;;26064964;22;20229;-69
2022/03/11 09:35:47;;;;;;;0.20;0.00;;;15.40;99.90;;;;;;26032609;22;20188;-69
2022/03/11 09:45:51;;;;;;;0.20;0.00;;;15.70;99.90;;;;;;26050087;22;20184;-68
2022/03/11 09:55:56;;;;;;;0.20;0.00;;;15.70;99.90;;;;;;26048409;22;20253;-69
2022/03/11 10:06:00;;;;;;;0.20;0.00;;;16.00;99.90;;;;;;26050329;22;20176;-68
2022/03/11 10:16:19;;;;;;;0.20;0.00;;;16.20;99.90;;;;;;26028725;22;20550;-69
2022/03/11 10:26:39;;;;;;;0.20;0.00;;;16.10;99.90;;;;;;26055517;22;20210;-69
2022/03/11 10:36:51;;;;;;;0.20;0.10;;;16.30;99.90;;;;;;26052711;22;20350;-68
2022/03/11 10:46:55;;;;;;;0.20;0.10;;;16.40;99.90;;;;;;26027226;22;20187;-68
2022/03/11 10:57:12;;;;;;;0.20;0.10;;;16.60;99.90;;;;;;26054801;22;20172;-68
2022/03/11 11:07:15;;;;;;;0.20;0.00;;;16.40;99.90;;;;;;26057069;22;20180;-68
2022/03/11 11:17:22;;;;;;;0.20;0.00;;;16.40;99.90;;;;;;26056862;22;20195;-68
2022/03/11 11:27:27;;;;;;;0.40;0.40;;;16.80;99.90;;;;;;26056987;22;20184;-67
2022/03/11 11:37:40;;;;;;;0.20;0.07;;;17.00;99.90;;;;;;26028267;22;20214;-82
2022/03/11 11:48:01;;;;;;;0.20;0.10;;;16.70;99.90;;;;;;26030169;22;20183;-79
2022/03/11 11:58:23;;;;;;;0.20;0.10;;;16.50;99.90;;;;;;26029963;22;20199;-82
2022/03/11 12:08:47;;;;;;;0.20;0.10;;;17.20;99.90;;;;;;26035054;22;20182;-76
2022/03/11 12:18:52;;;;;;;0.20;0.10;;;17.60;99.90;;;;;;26031684;22;20617;-82
2022/03/11 12:28:56;;;;;;;0.20;0.10;;;17.70;99.90;;;;;;26056515;22;20191;-79
2022/03/11 12:39:01;;;;;;;0.30;0.30;;;16.80;99.90;;;;;;26053295;22;20742;-81
2022/03/11 12:49:05;;;;;;;0.20;0.10;;;16.40;99.90;;;;;;26025074;22;20177;-81
2022/03/11 12:59:11;;;;;;;0.20;0.10;;;16.50;99.90;;;;;;26054880;22;20192;-80
2022/03/11 13:09:15;;;;;;;0.20;0.00;;;16.80;99.90;;;;;;26026093;22;20164;-82
2022/03/11 13:19:20;;;;;;;0.20;0.10;;;17.30;99.90;;;;;;26024368;22;20348;-81
2022/03/11 13:29:25;;;;;;;0.20;0.10;;;16.50;99.90;;;;;;26047146;22;20172;-79
2022/03/11 13:39:30;;;;;;;0.20;0.00;;;16.20;99.90;;;;;;26018226;22;20183;-78
2022/03/11 13:49:45;;;;;;;0.20;0.00;;;15.70;99.90;;;;;;26029961;22;20183;-68
2022/03/11 13:59:52;;;;;;;0.20;0.00;;;15.70;99.90;;;;;;26058440;22;20202;-69
2022/03/11 14:09:56;;;;;;;0.20;0.00;;;15.50;99.90;;;;;;26057827;22;20187;-67
2022/03/11 14:20:04;;;;;;;0.20;0.10;;;15.30;99.90;;;;;;26056482;22;20207;-67
2022/03/11 14:30:09;;;;;;;0.20;0.00;;;15.10;99.90;;;;;;26058078;22;20282;-66
2022/03/11 14:40:15;;;;;;;0.20;0.10;;;15.10;99.90;;;;;;26056021;22;20180;-68
2022/03/11 14:50:19;;;;;;;0.30;0.30;;;14.80;99.90;;;;;;26057940;22;20175;-67
2022/03/11 15:00:25;;;;;;;0.20;0.10;;;14.90;99.90;;;;;;26057152;22;20199;-74
2022/03/11 15:10:28;;;;;;;0.20;0.10;;;14.90;99.90;;;;;;26032191;22;20168;-78
2022/03/11 15:20:35;;;;;;;0.20;0.00;;;14.90;99.90;;;;;;26033128;22;20196;-78
2022/03/11 15:30:40;;;;;;;0.20;0.00;;;14.80;99.90;;;;;;26056188;22;20220;-77
2022/03/11 15:40:45;;;;;;;0.20;0.00;;;14.90;99.90;;;;;;26029893;22;20200;-78
2022/03/11 15:50:49;;;;;;;0.20;0.00;;;14.80;99.90;;;;;;26056556;22;20164;-75
2022/03/11 16:00:54;;;;;;;0.20;0.00;;;14.80;99.90;;;;;;26053782;22;20184;-76
2022/03/11 16:10:58;;;;;;;0.20;0.03;;;14.50;99.90;;;;;;26026424;22;20172;-68
2022/03/11 16:21:05;;;;;;;0.20;0.00;;;14.50;99.90;;;;;;26025404;22;20184;-66
2022/03/11 16:31:09;;;;;;;0.20;0.00;;;14.40;99.90;;;;;;26024155;22;20188;-69
2022/03/11 16:41:37;;;;;;;0.20;0.03;;;14.50;99.90;;;;;;26051249;22;20243;-67
2022/03/11 16:51:43;;;;;;;0.20;0.00;;;14.40;99.90;;;;;;26024372;22;20168;-68
2022/03/11 17:01:49;;;;;;;0.20;0.03;;;14.30;99.90;;;;;;26048894;22;20232;-70
2022/03/11 17:11:54;;;;;;;0.20;0.00;;;14.30;99.90;;;;;;26052082;22;20164;-69
2022/03/11 17:21:59;;;;;;;0.20;0.10;;;14.30;99.90;;;;;;26052104;22;20194;-67
2022/03/11 17:32:04;;;;;;;0.20;0.00;;;14.20;99.90;;;;;;26058366;22;20187;-66
2022/03/11 17:42:09;;;;;;;0.20;0.00;;;13.90;99.90;;;;;;26060223;22;20196;-67
2022/03/11 17:52:15;;;;;;;0.20;0.00;;;13.80;99.90;;;;;;26061453;22;20153;-67
2022/03/11 18:02:20;;;;;;;0.20;0.10;;;13.70;99.90;;;;;;26060694;22;20176;-65
2022/03/11 18:12:24;;;;;;;0.20;0.00;;;13.50;99.90;;;;;;26031521;22;20248;-67
2022/03/11 18:22:29;;;;;;;0.20;0.07;;;13.40;99.90;;;;;;26057991;22;20263;-66
2022/03/11 18:32:33;;;;;;;0.20;0.00;;;13.40;99.90;;;;;;26064030;22;20199;-65
2022/03/11 18:42:39;;;;;;;0.20;0.10;;;13.30;99.90;;;;;;26069174;22;20191;-66
2022/03/11 18:52:43;;;;;;;0.20;0.10;;;13.10;99.90;;;;;;26019468;22;20165;-67
2022/03/11 19:02:48;;;;;;;0.20;0.00;;;13.10;99.90;;;;;;26069825;22;20191;-67
2022/03/11 19:12:52;;;;;;;0.20;0.10;;;13.10;99.90;;;;;;26041287;22;20164;-66
2022/03/11 19:22:59;;;;;;;0.20;0.07;;;13.00;99.90;;;;;;26066470;22;20188;-66
2022/03/11 19:33:03;;;;;;;0.20;0.00;;;13.00;99.90;;;;;;26038922;22;20194;-68
2022/03/11 19:43:09;;;;;;;0.20;0.10;;;13.00;99.90;;;;;;26066183;22;20200;-66
2022/03/11 19:53:14;;;;;;;0.20;0.10;;;12.90;99.90;;;;;;26037862;22;20193;-65
2022/03/11 20:03:20;;;;;;;0.20;0.10;;;12.90;99.90;;;;;;26065782;22;20188;-67
2022/03/11 20:13:27;;;;;;;0.20;0.00;;;12.70;99.90;;;;;;26059931;22;20202;-65
2022/03/11 20:23:33;;;;;;;0.20;0.10;;;12.70;99.90;;;;;;26062019;22;20199;-65
2022/03/11 20:33:38;;;;;;;0.20;0.10;;;12.60;99.90;;;;;;26039159;22;20195;-76
2022/03/11 20:43:44;;;;;;;0.20;0.10;;;12.50;99.90;;;;;;26059673;22;20203;-75
2022/03/11 20:53:48;;;;;;;0.20;0.00;;;12.30;99.90;;;;;;26063157;22;20153;-73
2022/03/11 21:03:54;;;;;;;0.20;0.10;;;12.00;99.90;;;;;;26038484;22;20214;-74
2022/03/11 21:13:57;;;;;;;0.20;0.10;;;11.90;99.90;;;;;;26064961;22;20179;-74
2022/03/11 21:24:03;;;;;;;0.30;0.30;;;11.90;99.90;;;;;;26065697;22;20188;-74
2022/03/11 21:34:07;;;;;;;0.20;0.00;;;11.90;99.90;;;;;;26038623;22;20184;-74
2022/03/11 21:44:16;;;;;;;0.20;0.10;;;11.70;99.90;;;;;;26065374;22;20191;-75
2022/03/11 21:54:21;;;;;;;0.20;0.10;;;11.70;99.90;;;;;;26063591;22;20168;-72
2022/03/11 22:04:27;;;;;;;0.20;0.00;;;11.70;99.90;;;;;;26066609;22;20180;-73
2022/03/11 22:14:31;;;;;;;0.20;0.00;;;11.70;99.90;;;;;;26072605;22;20160;-74
2022/03/11 22:24:36;;;;;;;0.20;0.00;;;11.80;99.90;;;;;;26072459;22;20176;-73
2022/03/11 22:34:40;;;;;;;0.20;0.10;;;11.90;99.90;;;;;;26070215;22;20184;-75
2022/03/11 22:44:45;;;;;;;0.20;0.00;;;12.00;99.90;;;;;;26043846;22;20188;-74
2022/03/11 22:54:50;;;;;;;0.20;0.10;;;12.30;99.90;;;;;;26071382;22;20175;-69
2022/03/11 23:04:55;;;;;;;0.20;0.00;;;12.30;99.90;;;;;;26071160;22;20203;-70
2022/03/11 23:14:59;;;;;;;0.20;0.00;;;12.30;99.90;;;;;;26042831;22;20184;-69
2022/03/11 23:25:06;;;;;;;0.20;0.10;;;12.50;99.90;;;;;;26069517;22;20199;-68
2022/03/11 23:35:10;;;;;;;0.20;0.00;;;12.50;99.90;;;;;;26068637;22;20192;-68
2022/03/11 23:45:16;;;;;;;0.20;0.00;;;12.60;99.90;;;;;;26067748;22;20199;-68
2022/03/11 23:55:19;;;;;;;0.20;0.00;;;12.70;99.90;;;;;;26069206;22;20168;-69
